Time;durP1;ratioP1;P1;durP2;ratioP2;P2;SDS_P1;SDS_P2;PMS_P1;PMS_P2;Temp;Humidity;BMP_temperature;BMP_pressure;BME280_temperature;BME280_humidity;BME280_pressure;Samples;Min_cycle;Max_cycle;Signal;HPM_P1;HPM_P2
2021/07/20 00:00:21;;;;;;;17.73;8.05;;;14.30;95.20;;;;;;5031447;28;20069;-68
2021/07/20 00:02:48;;;;;;;16.42;7.97;;;14.20;95.10;;;;;;5026007;28;20021;-69
2021/07/20 00:05:20;;;;;;;16.67;8.63;;;14.20;95.30;;;;;;5017350;28;20036;-68
2021/07/20 00:07:49;;;;;;;15.05;7.97;;;14.10;95.30;;;;;;5028135;28;20033;-68
2021/07/20 00:10:21;;;;;;;17.63;9.07;;;14.10;95.40;;;;;;5028685;28;20044;-68
2021/07/20 00:12:47;;;;;;;18.15;8.23;;;14.10;95.70;;;;;;5030850;28;20056;-68
2021/07/20 00:15:14;;;;;;;20.67;8.68;;;14.00;95.70;;;;;;5024017;28;20503;-68
2021/07/20 00:17:42;;;;;;;16.63;9.18;;;14.00;95.80;;;;;;5022956;28;20121;-68
2021/07/20 00:20:09;;;;;;;17.13;8.63;;;13.90;95.90;;;;;;5013043;28;20030;-68
2021/07/20 00:22:34;;;;;;;19.48;7.90;;;13.90;96.00;;;;;;5018234;28;20465;-68
2021/07/20 00:25:00;;;;;;;16.52;8.35;;;13.80;96.10;;;;;;5028468;28;20100;-68
2021/07/20 00:27:25;;;;;;;14.10;7.65;;;13.90;96.30;;;;;;5026467;28;20037;-68
2021/07/20 00:29:51;;;;;;;16.35;8.70;;;13.80;96.40;;;;;;5032787;28;20057;-68
2021/07/20 00:32:16;;;;;;;18.70;9.00;;;13.80;96.40;;;;;;5024396;28;20026;-68
2021/07/20 00:34:42;;;;;;;16.58;9.32;;;13.80;96.50;;;;;;5028153;28;20092;-68
2021/07/20 00:37:08;;;;;;;17.73;9.23;;;13.70;96.60;;;;;;5026214;28;20030;-68
2021/07/20 00:39:33;;;;;;;17.05;8.55;;;13.70;96.70;;;;;;5034166;28;20025;-68
2021/07/20 00:41:59;;;;;;;16.48;8.95;;;13.70;96.80;;;;;;5034425;28;20079;-68
2021/07/20 00:44:25;;;;;;;19.40;9.35;;;13.70;96.90;;;;;;5030897;28;20024;-68
2021/07/20 00:46:51;;;;;;;20.17;9.27;;;13.60;97.00;;;;;;5034827;28;20383;-68
2021/07/20 00:49:16;;;;;;;17.38;9.55;;;13.60;97.10;;;;;;5035432;28;20037;-69
2021/07/20 00:51:43;;;;;;;16.45;9.30;;;13.50;97.10;;;;;;5032622;28;20101;-68
2021/07/20 00:54:09;;;;;;;22.38;10.40;;;13.50;97.30;;;;;;5029462;28;20030;-69
2021/07/20 00:56:35;;;;;;;17.15;9.15;;;13.40;97.40;;;;;;5030986;28;20492;-68
2021/07/20 00:59:03;;;;;;;22.83;10.90;;;13.40;97.50;;;;;;5023510;28;20399;-68
2021/07/20 01:01:29;;;;;;;17.50;8.90;;;13.40;97.70;;;;;;5027535;28;20033;-68
2021/07/20 01:03:55;;;;;;;17.98;8.93;;;13.30;97.80;;;;;;5033219;28;20108;-68
2021/07/20 01:06:22;;;;;;;19.77;10.75;;;13.40;97.90;;;;;;5025184;28;20030;-68
2021/07/20 01:08:51;;;;;;;20.27;9.90;;;13.30;98.00;;;;;;5032157;28;20029;-68
2021/07/20 01:11:18;;;;;;;19.75;9.27;;;13.30;98.00;;;;;;5034219;28;20036;-68
2021/07/20 01:13:46;;;;;;;19.98;9.95;;;13.20;98.10;;;;;;5032246;28;20034;-68
2021/07/20 01:16:12;;;;;;;22.45;10.00;;;13.20;98.30;;;;;;5030433;28;20029;-68
2021/07/20 01:18:39;;;;;;;23.58;9.55;;;13.20;98.40;;;;;;5025283;28;20179;-68
2021/07/20 01:21:06;;;;;;;19.25;9.70;;;13.10;98.40;;;;;;5030469;28;20116;-68
2021/07/20 01:23:45;;;;;;;23.30;10.10;;;13.10;98.50;;;;;;5026415;28;20056;-68
2021/07/20 01:26:12;;;;;;;21.05;10.70;;;13.00;98.60;;;;;;5022867;28;20537;-68
2021/07/20 01:28:40;;;;;;;20.27;10.27;;;13.00;98.70;;;;;;5025210;28;20037;-68
2021/07/20 01:31:12;;;;;;;19.20;10.38;;;13.00;98.80;;;;;;5031318;28;20078;-68
2021/07/20 01:33:41;;;;;;;22.52;10.48;;;12.90;98.80;;;;;;5024191;28;20017;-68
2021/07/20 01:36:09;;;;;;;20.50;9.43;;;12.90;98.90;;;;;;5033082;28;20439;-68
2021/07/20 01:38:36;;;;;;;20.48;9.73;;;12.90;99.00;;;;;;5029867;28;20017;-68
2021/07/20 01:41:09;;;;;;;20.38;10.18;;;12.80;99.00;;;;;;5025176;28;20022;-68
2021/07/20 01:43:38;;;;;;;21.60;9.60;;;12.80;99.10;;;;;;5024335;28;20013;-68
2021/07/20 01:46:05;;;;;;;23.58;10.43;;;12.80;99.10;;;;;;5022910;28;20579;-68
2021/07/20 01:48:34;;;;;;;19.45;10.05;;;12.80;99.30;;;;;;5028866;28;20096;-68
2021/07/20 01:51:02;;;;;;;24.08;10.30;;;12.80;99.30;;;;;;5033434;28;20035;-68
2021/07/20 01:53:28;;;;;;;21.73;10.27;;;12.80;99.40;;;;;;5023651;28;20426;-68
2021/07/20 01:55:54;;;;;;;21.45;10.82;;;12.70;99.40;;;;;;5024431;28;20163;-68
2021/07/20 01:58:20;;;;;;;19.38;9.77;;;12.70;99.50;;;;;;5027086;28;20475;-68
2021/07/20 02:00:46;;;;;;;22.63;9.35;;;12.70;99.60;;;;;;5031394;28;20104;-68
2021/07/20 02:08:43;;;;;;;21.10;10.63;;;12.60;99.80;;;;;;5029883;28;20040;-68
2021/07/20 02:11:16;;;;;;;22.52;9.98;;;12.50;99.90;;;;;;5020413;28;20030;-68
2021/07/20 02:13:51;;;;;;;19.55;9.38;;;12.40;99.90;;;;;;5030943;28;20057;-68
2021/07/20 02:16:19;;;;;;;19.83;10.20;;;12.40;99.90;;;;;;5015330;28;20412;-68
2021/07/20 02:18:48;;;;;;;18.70;9.18;;;12.30;99.90;;;;;;5027777;28;20041;-68
2021/07/20 02:21:14;;;;;;;21.85;9.50;;;12.30;99.90;;;;;;5033235;28;20044;-68
2021/07/20 02:23:41;;;;;;;25.08;11.00;;;12.30;99.90;;;;;;5032401;28;20052;-68
2021/07/20 02:26:08;;;;;;;20.58;10.10;;;12.30;99.90;;;;;;5016776;28;20037;-68
2021/07/20 02:28:36;;;;;;;22.40;10.52;;;12.20;99.90;;;;;;5029732;28;20037;-68
2021/07/20 02:31:04;;;;;;;25.35;10.88;;;12.10;99.90;;;;;;5032690;28;20095;-68
2021/07/20 02:33:30;;;;;;;22.08;11.23;;;12.10;99.90;;;;;;5030025;28;20025;-68
2021/07/20 02:35:58;;;;;;;23.40;10.68;;;12.10;99.90;;;;;;5023882;28;20442;-68
2021/07/20 02:38:24;;;;;;;23.50;10.82;;;12.10;99.90;;;;;;5031596;28;20087;-68
2021/07/20 02:40:50;;;;;;;24.92;10.80;;;12.00;99.90;;;;;;5025335;28;20398;-68
2021/07/20 02:43:18;;;;;;;21.25;9.70;;;12.00;99.90;;;;;;5026427;28;20033;-68
2021/07/20 02:45:45;;;;;;;26.05;10.77;;;12.00;99.90;;;;;;5024215;28;20494;-68
2021/07/20 02:48:11;;;;;;;23.63;11.43;;;12.00;99.90;;;;;;5031947;28;20040;-68
2021/07/20 02:50:37;;;;;;;23.92;9.90;;;12.00;99.90;;;;;;5033625;28;20038;-68
2021/07/20 02:53:04;;;;;;;27.92;11.60;;;12.00;99.90;;;;;;5023915;28;20091;-68
2021/07/20 02:55:31;;;;;;;23.30;10.63;;;12.00;99.90;;;;;;5028873;28;20022;-68
2021/07/20 02:57:59;;;;;;;26.27;11.18;;;12.00;99.90;;;;;;5031312;28;20155;-68
2021/07/20 03:00:25;;;;;;;26.35;12.00;;;12.00;99.90;;;;;;5026579;28;20097;-68
2021/07/20 03:02:52;;;;;;;30.38;11.65;;;12.00;99.90;;;;;;5027102;28;20100;-68
2021/07/20 03:05:18;;;;;;;24.08;11.18;;;11.90;99.90;;;;;;5029918;28;20452;-68
2021/07/20 03:07:51;;;;;;;24.67;10.60;;;11.90;99.90;;;;;;5021001;28;20034;-68
2021/07/20 03:10:19;;;;;;;24.40;11.40;;;11.90;99.90;;;;;;5017625;28;20022;-68
2021/07/20 03:12:46;;;;;;;22.42;10.27;;;11.80;99.90;;;;;;5023793;28;20113;-68
2021/07/20 03:15:13;;;;;;;30.40;13.25;;;11.80;99.90;;;;;;5026567;28;20068;-68
2021/07/20 03:17:39;;;;;;;25.00;10.90;;;11.80;99.90;;;;;;5027489;28;20036;-68
2021/07/20 03:20:07;;;;;;;23.45;10.65;;;11.80;99.90;;;;;;5032501;28;20032;-68
2021/07/20 03:22:33;;;;;;;26.83;12.65;;;11.80;99.90;;;;;;5030830;28;20100;-68
2021/07/20 03:25:03;;;;;;;24.95;11.48;;;11.80;99.90;;;;;;5027169;28;20060;-67
2021/07/20 03:27:31;;;;;;;26.92;11.55;;;11.80;99.90;;;;;;5028975;28;20124;-68
2021/07/20 03:29:59;;;;;;;27.05;12.32;;;11.80;99.90;;;;;;5031212;28;20025;-68
2021/07/20 03:32:26;;;;;;;23.42;10.85;;;11.70;99.90;;;;;;5030854;28;20037;-67
2021/07/20 03:34:53;;;;;;;20.95;9.80;;;11.70;99.90;;;;;;5020801;28;20032;-68
2021/07/20 03:37:20;;;;;;;25.02;10.13;;;11.70;99.90;;;;;;5029469;28;20033;-67
2021/07/20 03:39:46;;;;;;;21.27;9.75;;;11.70;99.90;;;;;;5032240;28;20091;-68
2021/07/20 03:42:12;;;;;;;26.55;10.00;;;11.70;99.90;;;;;;5032628;28;20034;-68
2021/07/20 03:44:39;;;;;;;24.27;10.80;;;11.60;99.90;;;;;;5023442;28;20068;-67
2021/07/20 03:47:06;;;;;;;26.60;10.05;;;11.60;99.90;;;;;;5031869;28;20025;-68
2021/07/20 03:49:34;;;;;;;22.83;9.95;;;11.60;99.90;;;;;;5030421;28;20036;-68
2021/07/20 03:52:02;;;;;;;26.38;11.43;;;11.60;99.90;;;;;;5024525;28;20026;-68
2021/07/20 03:54:30;;;;;;;24.98;11.15;;;11.60;99.90;;;;;;5026468;28;20435;-68
2021/07/20 03:56:57;;;;;;;30.77;12.40;;;11.60;99.90;;;;;;5022532;28;20039;-68
2021/07/20 03:59:25;;;;;;;25.80;11.13;;;11.60;99.90;;;;;;5019426;28;20029;-68
2021/07/20 04:01:52;;;;;;;31.27;13.88;;;11.60;99.90;;;;;;5022574;28;20018;-68
2021/07/20 04:04:21;;;;;;;29.20;11.90;;;11.50;99.90;;;;;;5025286;28;20451;-68
2021/07/20 04:06:46;;;;;;;31.92;10.85;;;11.60;99.90;;;;;;5017643;28;20053;-68
2021/07/20 04:09:13;;;;;;;29.40;12.60;;;11.60;99.90;;;;;;5030552;28;20764;-68
2021/07/20 04:11:40;;;;;;;26.73;11.30;;;11.60;99.90;;;;;;5028593;28;20017;-68
2021/07/20 04:14:06;;;;;;;27.38;11.18;;;11.60;99.90;;;;;;5029717;28;20017;-68
2021/07/20 04:16:34;;;;;;;28.88;12.77;;;11.60;99.90;;;;;;5031741;28;20026;-68
2021/07/20 04:19:00;;;;;;;24.70;10.98;;;11.60;99.90;;;;;;5023608;28;20468;-68
2021/07/20 04:21:26;;;;;;;26.90;11.73;;;11.60;99.90;;;;;;5034632;28;20025;-68
2021/07/20 04:23:52;;;;;;;28.73;12.60;;;11.60;99.90;;;;;;5036925;28;20024;-67
2021/07/20 04:26:19;;;;;;;26.42;11.75;;;11.70;99.90;;;;;;5035527;28;20036;-67
2021/07/20 04:28:44;;;;;;;27.35;11.73;;;11.70;99.90;;;;;;5034208;28;20029;-68
2021/07/20 04:31:11;;;;;;;26.75;11.75;;;11.80;99.90;;;;;;5034825;28;20579;-68
2021/07/20 04:33:38;;;;;;;27.45;12.45;;;11.80;99.90;;;;;;5022500;28;20029;-68
2021/07/20 04:36:05;;;;;;;26.67;12.45;;;11.80;99.90;;;;;;5035071;28;20036;-67
2021/07/20 04:38:33;;;;;;;26.48;12.15;;;11.90;99.90;;;;;;5033681;28;20037;-68
2021/07/20 04:40:59;;;;;;;28.48;12.15;;;11.90;99.90;;;;;;5017180;28;20034;-68
2021/07/20 04:43:26;;;;;;;24.85;11.75;;;12.00;99.90;;;;;;5025092;28;20033;-67
2021/07/20 04:45:56;;;;;;;31.20;12.32;;;12.00;99.90;;;;;;5028830;28;20096;-67
2021/07/20 04:48:22;;;;;;;29.48;12.73;;;12.00;99.90;;;;;;5029833;28;20499;-67
2021/07/20 04:50:49;;;;;;;26.27;12.07;;;12.10;99.90;;;;;;5029816;28;20037;-67
2021/07/20 04:53:16;;;;;;;31.90;12.50;;;12.20;99.90;;;;;;5034649;28;20409;-67
2021/07/20 04:55:44;;;;;;;25.33;11.57;;;12.20;99.90;;;;;;5024473;28;20037;-67
2021/07/20 04:58:10;;;;;;;27.27;11.90;;;12.20;99.90;;;;;;5021046;28;20033;-67
2021/07/20 05:00:36;;;;;;;24.48;11.73;;;12.30;99.90;;;;;;5031667;28;20055;-67
2021/07/20 05:03:04;;;;;;;28.63;11.40;;;12.30;99.90;;;;;;5035355;28;20361;-67
2021/07/20 05:05:32;;;;;;;33.55;13.82;;;12.40;99.90;;;;;;5033649;28;20030;-67
2021/07/20 05:08:00;;;;;;;28.73;12.15;;;12.50;99.90;;;;;;5031772;28;20021;-67
2021/07/20 05:10:26;;;;;;;31.15;12.88;;;12.60;99.90;;;;;;5047759;28;20431;-68
2021/07/20 05:12:52;;;;;;;28.00;11.48;;;12.70;99.90;;;;;;5030077;28;20052;-67
2021/07/20 05:15:20;;;;;;;26.08;11.52;;;12.80;99.90;;;;;;5030179;28;20033;-67
2021/07/20 05:17:47;;;;;;;28.10;11.93;;;12.90;99.90;;;;;;5033706;28;20595;-66
2021/07/20 05:20:15;;;;;;;22.27;10.85;;;13.10;99.90;;;;;;5030506;28;20025;-66
2021/07/20 05:22:42;;;;;;;22.15;10.93;;;13.30;99.90;;;;;;5031683;28;20384;-66
2021/07/20 05:25:09;;;;;;;23.88;11.07;;;13.70;99.90;;;;;;5029063;28;20030;-67
2021/07/20 05:27:36;;;;;;;19.02;10.00;;;14.10;99.90;;;;;;5007502;28;20045;-66
2021/07/20 05:30:06;;;;;;;19.17;9.60;;;14.40;99.90;;;;;;5027194;28;21879;-66
2021/07/20 05:32:36;;;;;;;19.38;9.90;;;14.80;99.90;;;;;;5045296;28;20454;-67
2021/07/20 05:35:04;;;;;;;19.77;9.38;;;15.10;99.90;;;;;;5034126;28;20037;-66
2021/07/20 05:37:34;;;;;;;18.10;10.05;;;15.50;99.90;;;;;;5024185;28;20038;-68
2021/07/20 05:40:00;;;;;;;17.42;9.70;;;15.80;99.90;;;;;;5029196;28;20053;-67
2021/07/20 05:42:28;;;;;;;20.10;9.65;;;16.00;99.90;;;;;;5023279;28;20038;-66
2021/07/20 05:44:54;;;;;;;17.80;10.57;;;16.20;99.60;;;;;;5016747;28;20032;-67
2021/07/20 05:47:20;;;;;;;21.02;10.20;;;16.40;99.40;;;;;;5014911;28;20953;-67
2021/07/20 05:49:46;;;;;;;17.75;10.05;;;16.50;98.70;;;;;;5013776;28;20046;-67
2021/07/20 05:52:16;;;;;;;17.40;9.98;;;16.60;98.30;;;;;;5018365;28;20033;-67
2021/07/20 05:54:45;;;;;;;23.02;10.68;;;16.70;97.60;;;;;;5019970;28;20029;-67
2021/07/20 05:57:12;;;;;;;17.63;9.40;;;16.70;97.30;;;;;;5045292;28;20455;-67
2021/07/20 05:59:39;;;;;;;17.95;9.95;;;16.70;96.90;;;;;;5034092;28;20139;-67
2021/07/20 06:02:09;;;;;;;19.25;10.32;;;16.80;96.50;;;;;;5031903;28;20029;-67
2021/07/20 06:04:36;;;;;;;17.48;9.48;;;16.80;96.00;;;;;;5027257;28;20022;-67
2021/07/20 06:07:04;;;;;;;16.48;9.55;;;16.80;95.70;;;;;;5022644;28;20034;-67
2021/07/20 06:09:31;;;;;;;16.25;9.55;;;16.80;95.50;;;;;;5034417;28;20032;-67
2021/07/20 06:11:58;;;;;;;16.02;8.23;;;16.80;95.30;;;;;;5035269;28;20034;-67
2021/07/20 06:14:24;;;;;;;18.30;9.95;;;16.80;94.90;;;;;;5035077;28;20029;-68
2021/07/20 06:16:50;;;;;;;18.42;9.90;;;16.80;94.60;;;;;;5033519;28;20040;-67
2021/07/20 06:19:16;;;;;;;16.25;8.77;;;16.80;94.20;;;;;;5034110;28;20045;-68
2021/07/20 06:21:43;;;;;;;15.43;8.00;;;16.80;94.10;;;;;;5032512;28;20030;-67
2021/07/20 06:24:09;;;;;;;13.32;7.43;;;16.80;94.00;;;;;;5035572;28;20053;-67
2021/07/20 06:26:36;;;;;;;15.30;8.88;;;16.90;93.60;;;;;;5033304;28;20447;-67
2021/07/20 06:29:03;;;;;;;16.27;8.32;;;16.90;93.40;;;;;;5031668;28;20581;-67
2021/07/20 06:31:30;;;;;;;17.42;7.88;;;16.90;93.10;;;;;;5030343;28;20024;-67
2021/07/20 06:33:56;;;;;;;14.05;7.65;;;17.00;93.00;;;;;;5031169;28;20022;-68
2021/07/20 06:36:23;;;;;;;16.23;8.10;;;17.00;92.40;;;;;;5030005;28;20025;-68
2021/07/20 06:38:49;;;;;;;13.68;7.88;;;17.10;92.20;;;;;;5025989;28;20097;-68
2021/07/20 06:41:17;;;;;;;13.88;8.40;;;17.10;91.90;;;;;;5032906;28;20029;-67
2021/07/20 06:43:43;;;;;;;14.55;8.25;;;17.20;91.70;;;;;;5032147;28;20104;-68
2021/07/20 06:46:10;;;;;;;12.40;7.15;;;17.20;91.40;;;;;;5032686;28;20105;-68
2021/07/20 06:48:44;;;;;;;13.07;7.63;;;17.30;91.20;;;;;;5032709;28;20064;-67
2021/07/20 06:51:13;;;;;;;9.50;5.57;;;17.30;91.10;;;;;;5033457;28;20057;-67
2021/07/20 06:53:38;;;;;;;13.15;7.28;;;17.40;90.80;;;;;;5033180;28;20029;-68
2021/07/20 06:56:06;;;;;;;11.60;6.47;;;17.40;90.30;;;;;;5031821;28;20102;-67
2021/07/20 06:58:33;;;;;;;12.65;6.65;;;17.30;90.20;;;;;;5032936;28;20082;-68
2021/07/20 07:01:01;;;;;;;12.55;6.88;;;17.50;90.50;;;;;;5030884;28;20029;-67
2021/07/20 07:04:00;;;;;;;14.07;6.78;;;17.60;90.20;;;;;;5033470;28;20022;-68
2021/07/20 07:06:28;;;;;;;11.77;6.38;;;17.70;90.10;;;;;;5024754;28;20037;-67
2021/07/20 07:08:55;;;;;;;12.13;6.78;;;17.80;89.60;;;;;;5034126;28;20048;-68
2021/07/20 07:11:21;;;;;;;11.38;6.57;;;17.90;89.60;;;;;;5030620;28;20037;-68
2021/07/20 07:13:47;;;;;;;12.95;6.90;;;18.00;89.10;;;;;;5033495;28;20026;-67
2021/07/20 07:16:16;;;;;;;10.27;5.90;;;18.10;88.90;;;;;;5036163;28;20041;-67
2021/07/20 07:18:42;;;;;;;12.57;6.80;;;18.10;87.80;;;;;;5031763;28;20137;-67
2021/07/20 07:21:08;;;;;;;12.07;6.30;;;18.10;87.50;;;;;;5032090;28;20026;-68
2021/07/20 07:23:35;;;;;;;12.20;7.70;;;18.20;87.00;;;;;;5033820;28;20163;-67
2021/07/20 07:26:01;;;;;;;11.57;7.15;;;18.30;85.90;;;;;;5031658;28;20018;-67
2021/07/20 07:28:28;;;;;;;14.70;6.95;;;18.20;85.10;;;;;;5029552;28;20036;-67
2021/07/20 07:30:55;;;;;;;10.23;6.97;;;18.30;85.50;;;;;;5022633;28;20030;-68
2021/07/20 07:33:22;;;;;;;11.00;6.75;;;18.30;84.70;;;;;;5029330;28;20064;-67
2021/07/20 07:35:51;;;;;;;12.73;7.20;;;18.40;84.50;;;;;;5023934;28;20092;-67
2021/07/20 07:38:19;;;;;;;9.60;5.65;;;18.50;84.30;;;;;;5032469;28;20100;-67
2021/07/20 07:40:53;;;;;;;11.65;7.15;;;18.60;84.00;;;;;;5030769;28;20037;-68
2021/07/20 07:43:21;;;;;;;13.35;7.07;;;18.70;83.40;;;;;;5033520;28;20083;-68
2021/07/20 07:45:48;;;;;;;12.32;7.25;;;18.80;83.00;;;;;;5032157;28;20028;-67
2021/07/20 07:48:15;;;;;;;9.95;6.00;;;18.90;83.20;;;;;;5030385;28;20471;-67
2021/07/20 07:50:41;;;;;;;14.35;7.72;;;18.90;82.40;;;;;;5031422;28;20083;-67
2021/07/20 07:53:08;;;;;;;11.77;6.97;;;18.90;80.30;;;;;;5032043;28;20037;-67
2021/07/20 07:55:34;;;;;;;12.18;7.35;;;18.90;79.60;;;;;;5031263;28;20037;-67
2021/07/20 07:58:00;;;;;;;10.00;6.40;;;18.90;79.40;;;;;;5030872;28;22794;-67
2021/07/20 08:00:28;;;;;;;10.15;6.53;;;18.90;79.20;;;;;;5033046;28;20040;-67
2021/07/20 08:02:56;;;;;;;11.63;7.07;;;18.90;78.80;;;;;;5030657;28;20036;-68
2021/07/20 08:05:26;;;;;;;12.68;7.07;;;18.90;78.40;;;;;;5032972;28;20032;-68
2021/07/20 08:07:54;;;;;;;13.88;6.70;;;18.90;78.10;;;;;;5028296;28;20450;-68
2021/07/20 08:10:20;;;;;;;17.02;7.97;;;19.00;78.80;;;;;;5033210;28;20033;-68
2021/07/20 08:12:46;;;;;;;10.82;7.50;;;19.20;78.90;;;;;;5031535;28;20112;-67
2021/07/20 08:15:17;;;;;;;11.40;7.15;;;19.30;77.50;;;;;;5033007;28;20045;-67
2021/07/20 08:17:43;;;;;;;10.48;6.20;;;19.40;76.90;;;;;;5031796;28;20074;-67
2021/07/20 08:20:12;;;;;;;13.32;8.20;;;19.50;77.20;;;;;;5031550;28;20026;-67
2021/07/20 08:22:39;;;;;;;12.13;7.18;;;19.60;76.10;;;;;;5032232;28;20034;-67
2021/07/20 08:25:10;;;;;;;10.90;5.97;;;19.60;76.70;;;;;;5032178;28;20018;-67
2021/07/20 08:27:43;;;;;;;10.55;6.35;;;19.60;76.50;;;;;;5030059;28;20476;-67
2021/07/20 08:30:09;;;;;;;11.88;6.60;;;19.60;76.10;;;;;;5032806;28;20399;-67
2021/07/20 08:32:52;;;;;;;9.90;6.68;;;19.70;76.50;;;;;;5030650;28;20053;-67
2021/07/20 08:35:20;;;;;;;11.68;6.93;;;19.70;75.30;;;;;;5033023;28;20108;-67
2021/07/20 08:37:49;;;;;;;13.30;7.28;;;19.70;73.40;;;;;;5031458;28;20369;-67
2021/07/20 08:40:26;;;;;;;9.57;6.68;;;19.70;74.10;;;;;;5032103;28;20083;-67
2021/07/20 08:43:13;;;;;;;12.30;7.25;;;19.80;74.70;;;;;;5030672;28;20033;-67
2021/07/20 08:46:04;;;;;;;11.30;6.95;;;19.80;73.30;;;;;;5028476;28;20025;-68
2021/07/20 08:48:53;;;;;;;11.35;6.88;;;19.80;72.00;;;;;;5032326;28;20026;-67
2021/07/20 08:51:29;;;;;;;11.50;7.20;;;19.90;71.60;;;;;;5031293;28;20392;-68
2021/07/20 08:54:11;;;;;;;10.25;6.88;;;20.00;71.50;;;;;;5032760;28;20025;-67
2021/07/20 08:56:46;;;;;;;;;;;20.10;72.90;;;;;;5031947;28;20442;-67
2021/07/20 08:59:24;;;;;;;11.10;6.45;;;20.30;72.40;;;;;;5031662;28;19913;-67
2021/07/20 09:01:51;;;;;;;11.60;7.53;;;20.40;71.90;;;;;;5034499;28;20116;-68
2021/07/20 09:04:40;;;;;;;11.80;6.85;;;20.40;70.60;;;;;;5036327;28;20026;-67
2021/07/20 09:07:12;;;;;;;8.88;6.32;;;20.40;70.70;;;;;;5035546;28;20480;-67
2021/07/20 09:09:46;;;;;;;12.77;7.78;;;20.50;69.90;;;;;;5036634;28;20025;-67
2021/07/20 09:12:21;;;;;;;9.10;5.95;;;20.60;68.00;;;;;;5035753;28;20375;-67
2021/07/20 09:15:07;;;;;;;10.32;6.28;;;20.50;67.90;;;;;;5034400;28;20083;-67
2021/07/20 09:17:54;;;;;;;12.02;7.47;;;20.50;67.90;;;;;;5015965;28;20472;-67
2021/07/20 09:20:31;;;;;;;11.00;6.57;;;20.50;67.80;;;;;;5027790;28;20033;-68
2021/07/20 09:23:03;;;;;;;12.55;6.65;;;20.70;68.60;;;;;;5036647;28;20490;-67
2021/07/20 09:25:57;;;;;;;13.13;6.55;;;20.90;68.00;;;;;;5024771;28;20026;-68
2021/07/20 09:28:35;;;;;;;9.75;6.55;;;21.10;68.40;;;;;;5027475;28;20040;-67
2021/07/20 09:31:06;;;;;;;11.90;7.70;;;21.30;67.90;;;;;;5034573;28;20037;-67
2021/07/20 09:33:45;;;;;;;11.63;7.20;;;21.40;67.10;;;;;;5035280;28;20025;-68
2021/07/20 09:36:23;;;;;;;10.20;6.18;;;21.40;66.10;;;;;;5035646;28;20029;-67
2021/07/20 09:39:03;;;;;;;11.88;7.45;;;21.30;65.80;;;;;;5025768;28;20033;-67
2021/07/20 09:41:57;;;;;;;8.48;5.82;;;21.40;66.20;;;;;;5033762;28;20028;-67
2021/07/20 09:44:22;;;;;;;10.95;6.40;;;21.40;65.60;;;;;;5035160;28;20111;-67
2021/07/20 09:47:16;;;;;;;12.38;7.20;;;21.30;65.30;;;;;;5034238;28;20028;-67
2021/07/20 09:49:58;;;;;;;13.18;6.50;;;21.40;65.40;;;;;;5033776;28;20035;-67
2021/07/20 09:52:41;;;;;;;11.95;6.25;;;21.40;66.20;;;;;;5035084;28;20040;-68
2021/07/20 09:55:34;;;;;;;12.07;7.05;;;21.60;66.30;;;;;;5033754;28;20108;-68
2021/07/20 09:58:22;;;;;;;10.85;6.35;;;21.70;65.50;;;;;;5033406;28;20106;-68
2021/07/20 10:00:50;;;;;;;15.55;6.95;;;21.80;65.30;;;;;;5032211;28;20079;-68
2021/07/20 10:03:34;;;;;;;11.02;6.88;;;21.90;65.30;;;;;;5035126;28;20026;-68
2021/07/20 10:06:28;;;;;;;12.27;7.25;;;21.90;64.30;;;;;;5021485;28;20022;-70
2021/07/20 10:09:05;;;;;;;11.68;7.82;;;21.90;63.80;;;;;;5023582;28;20035;-68
2021/07/20 10:11:38;;;;;;;9.80;6.38;;;21.90;63.80;;;;;;5034248;28;20060;-68
2021/07/20 10:14:07;;;;;;;12.50;7.47;;;22.10;64.60;;;;;;5034382;28;20036;-68
2021/07/20 10:16:49;;;;;;;10.55;6.80;;;22.20;63.10;;;;;;5033566;28;20124;-68
2021/07/20 10:19:24;;;;;;;;;;;22.00;62.20;;;;;;5028309;28;20518;-68
2021/07/20 10:21:52;;;;;;;12.25;6.57;;;21.80;62.80;;;;;;5034826;28;19905;-69
2021/07/20 10:24:25;;;;;;;10.05;7.07;;;21.80;64.70;;;;;;5026534;28;20045;-68
2021/07/20 10:26:57;;;;;;;13.90;7.75;;;22.00;63.80;;;;;;5020863;28;20083;-68
2021/07/20 10:29:35;;;;;;;;;;;21.90;61.30;;;;;;5021496;28;20018;-68
2021/07/20 10:32:20;;;;;;;11.77;6.85;;;21.80;62.00;;;;;;5027280;28;19909;-67
2021/07/20 10:34:51;;;;;;;9.82;6.57;;;21.70;62.90;;;;;;5026511;28;20048;-68
2021/07/20 10:37:22;;;;;;;9.90;6.90;;;21.80;62.10;;;;;;5021136;28;20050;-68
2021/07/20 10:39:51;;;;;;;11.40;6.53;;;21.90;63.00;;;;;;5033240;28;20037;-68
2021/07/20 10:42:56;;;;;;;12.02;7.43;;;22.20;62.90;;;;;;5030791;28;20032;-67
2021/07/20 10:45:22;;;;;;;12.27;7.30;;;22.30;61.10;;;;;;5041032;28;20071;-68
2021/07/20 10:47:59;;;;;;;18.42;8.13;;;22.20;61.60;;;;;;5022373;28;20037;-68
2021/07/20 10:50:48;;;;;;;10.65;6.80;;;22.40;61.80;;;;;;5032019;28;20029;-67
2021/07/20 10:53:19;;;;;;;9.73;6.40;;;22.60;61.50;;;;;;5034331;28;20598;-69
2021/07/20 10:56:07;;;;;;;10.57;7.18;;;22.70;61.50;;;;;;5033974;28;20026;-69
2021/07/20 10:58:57;;;;;;;11.77;6.63;;;22.80;60.30;;;;;;5017870;28;20079;-68
2021/07/20 11:01:32;;;;;;;12.30;7.00;;;22.80;59.80;;;;;;5022222;28;20105;-68
2021/07/20 11:04:01;;;;;;;13.38;7.93;;;22.80;59.90;;;;;;5023068;28;20116;-67
2021/07/20 11:06:27;;;;;;;10.40;6.78;;;22.80;59.80;;;;;;5033671;28;20021;-68
2021/07/20 11:09:00;;;;;;;13.07;6.80;;;22.70;60.20;;;;;;5032474;28;20037;-67
2021/07/20 11:11:30;;;;;;;14.30;7.38;;;22.60;60.30;;;;;;5033907;28;20029;-68
2021/07/20 11:13:59;;;;;;;10.63;7.13;;;22.60;61.10;;;;;;5032654;28;20025;-68
2021/07/20 11:16:26;;;;;;;10.27;7.25;;;22.70;61.60;;;;;;5031984;28;20036;-68
2021/07/20 11:18:53;;;;;;;12.65;8.20;;;22.80;60.60;;;;;;5033004;28;20048;-68
2021/07/20 11:21:24;;;;;;;10.82;6.95;;;22.90;59.40;;;;;;5033318;28;20037;-68
2021/07/20 11:23:51;;;;;;;11.88;7.00;;;22.90;59.40;;;;;;5032715;28;20029;-68
2021/07/20 11:26:19;;;;;;;9.70;6.43;;;22.80;59.20;;;;;;5032997;28;20484;-68
2021/07/20 11:28:45;;;;;;;12.77;7.53;;;22.70;60.70;;;;;;5033254;28;20165;-68
2021/07/20 11:31:26;;;;;;;12.18;7.15;;;22.80;60.30;;;;;;5032051;28;20061;-68
2021/07/20 11:34:00;;;;;;;11.18;6.85;;;22.90;60.00;;;;;;5028516;28;20538;-68
2021/07/20 11:36:33;;;;;;;12.02;8.10;;;22.90;60.40;;;;;;5020436;28;20035;-67
2021/07/20 11:39:00;;;;;;;10.55;6.88;;;23.00;60.90;;;;;;5030237;28;20029;-68
2021/07/20 11:41:38;;;;;;;10.93;7.75;;;23.10;60.70;;;;;;5027019;28;20025;-67
2021/07/20 11:44:42;;;;;;;13.75;7.07;;;23.20;59.00;;;;;;5013552;28;20022;-69
2021/07/20 11:47:23;;;;;;;11.40;7.47;;;23.30;59.90;;;;;;5021510;28;20118;-66
2021/07/20 11:50:11;;;;;;;13.25;7.80;;;23.50;60.60;;;;;;5024904;28;20123;-70
2021/07/20 11:53:02;;;;;;;11.38;7.43;;;23.70;59.10;;;;;;5023977;28;20094;-63
2021/07/20 11:55:43;;;;;;;12.10;7.32;;;23.70;58.40;;;;;;5033401;28;20075;-66
2021/07/20 11:58:38;;;;;;;11.02;6.93;;;23.60;59.00;;;;;;5030478;28;20053;-71
2021/07/20 12:01:54;;;;;;;12.98;7.50;;;23.60;59.50;;;;;;5031244;28;20581;-67
2021/07/20 12:04:34;;;;;;;11.88;6.75;;;23.60;58.40;;;;;;5032206;28;20040;-68
2021/07/20 12:07:31;;;;;;;10.13;6.80;;;23.50;59.00;;;;;;5027537;28;20029;-68
2021/07/20 12:10:09;;;;;;;11.73;6.60;;;23.50;58.10;;;;;;5030502;28;20036;-68
2021/07/20 12:12:47;;;;;;;11.63;7.65;;;23.50;58.70;;;;;;5031195;28;20036;-68
2021/07/20 12:15:14;;;;;;;9.98;6.88;;;23.50;58.40;;;;;;5031493;28;20030;-67
2021/07/20 12:17:41;;;;;;;13.00;8.18;;;23.50;58.00;;;;;;5029839;28;20080;-69
2021/07/20 12:20:08;;;;;;;12.85;8.52;;;23.50;57.70;;;;;;5032694;28;20476;-68
2021/07/20 12:22:34;;;;;;;10.77;7.28;;;23.40;57.60;;;;;;5032764;28;20076;-69
2021/07/20 12:25:09;;;;;;;10.05;7.60;;;23.40;58.20;;;;;;5029795;28;20022;-68
2021/07/20 12:27:37;;;;;;;10.77;7.03;;;23.60;58.50;;;;;;5023225;28;20037;-68
2021/07/20 12:30:11;;;;;;;12.02;6.80;;;23.70;59.00;;;;;;5030681;28;20037;-69
2021/07/20 12:32:38;;;;;;;10.95;7.68;;;23.80;58.70;;;;;;5032642;28;20176;-68
2021/07/20 12:35:05;;;;;;;12.98;7.25;;;24.00;57.40;;;;;;5031271;28;20037;-68
2021/07/20 12:37:31;;;;;;;11.52;6.72;;;24.00;58.90;;;;;;5017191;28;20384;-68
2021/07/20 12:39:57;;;;;;;12.65;6.97;;;24.10;58.00;;;;;;5020744;28;20018;-68
2021/07/20 12:42:31;;;;;;;13.43;8.23;;;24.20;57.80;;;;;;5036846;28;20100;-68
2021/07/20 12:45:11;;;;;;;9.35;6.95;;;24.00;56.30;;;;;;5034188;28;20475;-68
2021/07/20 12:47:38;;;;;;;11.52;8.05;;;24.00;57.60;;;;;;5036223;28;20033;-68
2021/07/20 12:50:05;;;;;;;10.52;7.13;;;24.00;57.10;;;;;;5036567;28;20048;-68
2021/07/20 12:52:36;;;;;;;11.63;7.15;;;24.00;57.10;;;;;;5029504;28;20443;-67
2021/07/20 12:55:06;;;;;;;11.45;7.40;;;24.10;56.80;;;;;;5016835;28;20029;-68
2021/07/20 12:57:32;;;;;;;12.63;8.13;;;24.10;55.80;;;;;;5016772;28;20116;-68